createdAt,value
2023-01-05T00:00:22.172Z,12.53
2023-01-05T00:01:22.160Z,12.60
2023-01-05T00:02:24.583Z,12.56
2023-01-05T00:03:22.206Z,12.49
2023-01-05T00:04:22.265Z,12.54
2023-01-05T00:05:22.247Z,12.53
2023-01-05T00:06:22.294Z,12.49
2023-01-05T00:07:22.298Z,12.50
2023-01-05T00:08:22.316Z,12.52
2023-01-05T00:09:22.347Z,12.53
2023-01-05T00:10:22.362Z,12.54
2023-01-05T00:11:22.382Z,12.62
2023-01-05T00:12:22.422Z,12.57
2023-01-05T00:13:22.427Z,12.62
2023-01-05T00:14:22.455Z,12.56
2023-01-05T00:15:22.478Z,12.57
2023-01-05T00:16:22.547Z,12.52
2023-01-05T00:17:22.533Z,12.50
2023-01-05T00:18:22.546Z,12.47
2023-01-05T00:19:22.571Z,12.35
2023-01-05T00:20:22.596Z,12.47
2023-01-05T00:21:22.617Z,12.45
2023-01-05T00:22:22.639Z,12.49
2023-01-05T00:23:22.661Z,12.42
2023-01-05T00:24:22.689Z,12.29
2023-01-05T00:25:22.711Z,12.29
2023-01-05T00:26:22.727Z,12.41
2023-01-05T00:27:22.748Z,12.47
2023-01-05T00:28:22.771Z,12.29
2023-01-05T00:29:22.797Z,12.34
2023-01-05T00:30:22.818Z,12.29
2023-01-05T00:31:22.912Z,12.35
2023-01-05T00:32:22.861Z,12.39
2023-01-05T00:33:22.893Z,12.39
2023-01-05T00:34:22.911Z,12.41
2023-01-05T00:35:22.934Z,12.45
2023-01-05T00:36:22.955Z,12.42
2023-01-05T00:37:22.984Z,12.41
2023-01-05T00:38:23.009Z,12.47
2023-01-05T00:39:23.029Z,12.39
2023-01-05T00:40:23.068Z,12.42
2023-01-05T00:41:23.065Z,12.39
2023-01-05T00:42:23.108Z,12.42
2023-01-05T00:43:23.115Z,12.41
2023-01-05T00:44:23.135Z,12.35
2023-01-05T00:45:23.155Z,12.34
2023-01-05T00:46:23.236Z,12.29
2023-01-05T00:47:23.205Z,12.32
2023-01-05T00:48:23.228Z,12.31
2023-01-05T00:49:23.256Z,12.29
2023-01-05T00:50:23.278Z,12.31
2023-01-05T00:51:23.307Z,12.29
2023-01-05T00:52:23.326Z,12.24
2023-01-05T00:53:23.342Z,12.24
2023-01-05T00:54:23.368Z,12.32
2023-01-05T00:55:23.385Z,12.17
2023-01-05T00:56:23.412Z,12.12
2023-01-05T00:57:23.433Z,12.09
2023-01-05T00:58:23.457Z,12.14
2023-01-05T00:59:23.497Z,12.14
2023-01-05T01:00:23.508Z,12.13
2023-01-05T01:01:23.661Z,12.13
2023-01-05T01:02:23.723Z,12.12
2023-01-05T01:03:23.615Z,12.10
2023-01-05T01:04:23.593Z,12.13
2023-01-05T01:05:23.631Z,12.05
2023-01-05T01:06:23.642Z,12.02
2023-01-05T01:07:23.656Z,12.02
2023-01-05T01:08:23.678Z,12.01
2023-01-05T01:09:23.717Z,12.07
2023-01-05T01:10:23.790Z,12.14
2023-01-05T01:11:23.748Z,12.12
2023-01-05T01:12:23.785Z,12.16
2023-01-05T01:13:23.834Z,12.10
2023-01-05T01:14:23.821Z,12.10
2023-01-05T01:15:23.868Z,12.12
2023-01-05T01:16:23.910Z,12.20
2023-01-05T01:17:23.886Z,12.21
2023-01-05T01:18:23.906Z,12.14
2023-01-05T01:19:23.942Z,12.21
2023-01-05T01:20:23.966Z,12.12
2023-01-05T01:21:23.971Z,12.19
2023-01-05T01:22:23.998Z,12.21
2023-01-05T01:23:24.019Z,12.21
2023-01-05T01:24:24.042Z,12.20
2023-01-05T01:25:24.069Z,12.17
2023-01-05T01:26:24.105Z,12.13
2023-01-05T01:27:24.142Z,12.20
2023-01-05T01:28:24.135Z,12.24
2023-01-05T01:29:24.174Z,12.21
2023-01-05T01:30:24.208Z,12.16
2023-01-05T01:31:24.198Z,12.13
2023-01-05T01:32:24.232Z,12.14
2023-01-05T01:33:24.272Z,12.19
2023-01-05T01:34:24.278Z,12.13
2023-01-05T01:35:24.298Z,12.21
2023-01-05T01:36:24.311Z,12.13
2023-01-05T01:37:24.349Z,12.19
2023-01-05T01:38:24.359Z,12.20
2023-01-05T01:39:24.379Z,12.13
2023-01-05T01:40:24.401Z,12.12
2023-01-05T01:41:24.421Z,12.13
2023-01-05T01:42:24.458Z,12.13
2023-01-05T01:43:24.470Z,12.13
2023-01-05T01:44:24.493Z,12.14
2023-01-05T01:45:24.521Z,12.16
2023-01-05T01:46:24.588Z,12.13
2023-01-05T01:47:24.580Z,12.13
2023-01-05T01:48:24.595Z,12.14
2023-01-05T01:49:24.607Z,12.19
2023-01-05T01:50:24.632Z,12.02
2023-01-05T01:51:24.664Z,12.14
2023-01-05T01:52:24.675Z,12.10
2023-01-05T01:53:24.699Z,12.16
2023-01-05T01:54:24.723Z,12.13
2023-01-05T01:55:24.739Z,12.14
2023-01-05T01:56:24.764Z,12.09
2023-01-05T01:57:24.791Z,12.13
2023-01-05T01:58:24.817Z,12.16
2023-01-05T01:59:24.840Z,12.14
2023-01-05T02:00:24.859Z,12.09
2023-01-05T02:01:24.950Z,12.13
2023-01-05T02:02:25.083Z,12.17
2023-01-05T02:03:24.935Z,12.20
2023-01-05T02:04:24.985Z,12.20
2023-01-05T02:05:24.972Z,12.13
2023-01-05T02:06:25.004Z,12.28
2023-01-05T02:07:25.017Z,12.19
2023-01-05T02:08:25.040Z,12.19
2023-01-05T02:09:25.074Z,12.20
2023-01-05T02:10:25.114Z,12.10
2023-01-05T02:11:25.118Z,12.14
2023-01-05T02:12:25.140Z,12.07
2023-01-05T02:13:31.186Z,12.13
2023-01-05T02:14:25.180Z,12.05
2023-01-05T02:15:25.194Z,11.96
2023-01-05T02:16:25.259Z,11.99
2023-01-05T02:17:25.238Z,11.95
2023-01-05T02:18:25.270Z,11.88
2023-01-05T02:19:25.285Z,11.83
2023-01-05T02:20:25.306Z,11.83
2023-01-05T02:21:25.347Z,11.82
2023-01-05T02:22:25.371Z,11.72
2023-01-05T02:23:25.442Z,11.75
2023-01-05T02:24:25.398Z,11.76
2023-01-05T02:25:25.419Z,11.69
2023-01-05T02:26:25.449Z,11.78
2023-01-05T02:27:25.469Z,11.69
2023-01-05T02:28:25.489Z,11.72
2023-01-05T02:29:25.513Z,11.69
2023-01-05T02:30:25.584Z,11.70
2023-01-05T02:31:25.630Z,11.62
2023-01-05T02:32:25.580Z,11.72
2023-01-05T02:33:25.600Z,11.70
2023-01-05T02:34:25.626Z,11.72
2023-01-05T02:35:25.649Z,11.75
2023-01-05T02:36:28.724Z,11.75
2023-01-05T02:37:25.698Z,11.73
2023-01-05T02:38:25.721Z,11.73
2023-01-05T02:39:25.737Z,11.75
2023-01-05T02:40:25.759Z,11.70
2023-01-05T02:41:25.778Z,11.78
2023-01-05T02:42:25.806Z,11.79
2023-01-05T02:43:25.821Z,11.76
2023-01-05T02:44:25.846Z,11.79
2023-01-05T02:45:25.869Z,11.78
2023-01-05T02:46:25.939Z,11.67
2023-01-05T02:47:25.925Z,11.78
2023-01-05T02:48:25.937Z,11.72
2023-01-05T02:49:33.139Z,11.76
2023-01-05T02:51:19.461Z,11.73
2023-01-05T02:52:18.927Z,11.69
2023-01-05T02:54:22.946Z,11.72
2023-01-05T02:55:22.940Z,11.79
2023-01-05T02:57:27.432Z,11.76
2023-01-05T02:58:26.990Z,11.75
2023-01-05T03:00:30.990Z,11.76
2023-01-05T03:01:31.158Z,11.67
2023-01-05T03:03:35.536Z,11.76
2023-01-05T03:04:35.069Z,11.69
2023-01-05T03:06:39.075Z,11.64
2023-01-05T03:07:39.090Z,11.57
2023-01-05T03:09:43.573Z,11.57
2023-01-05T03:10:43.144Z,11.65
2023-01-05T03:12:47.115Z,11.62
2023-01-05T03:13:47.132Z,11.64
2023-01-05T03:15:51.656Z,11.52
2023-01-05T03:16:51.158Z,11.54
2023-01-05T03:18:55.178Z,11.58
2023-01-05T03:19:55.195Z,11.61
2023-01-05T03:21:48.676Z,11.58
2023-01-05T03:22:48.143Z,11.57
2023-01-05T03:24:52.148Z,11.58
2023-01-05T03:25:52.159Z,11.51
2023-01-05T03:27:57.167Z,11.47
2023-01-05T03:28:56.673Z,11.60
2023-01-05T03:29:56.699Z,11.54
2023-01-05T03:30:56.750Z,11.55
2023-01-05T03:31:56.745Z,11.58
2023-01-05T03:32:56.765Z,11.62
2023-01-05T03:33:56.790Z,11.58
2023-01-05T03:34:56.808Z,11.51
2023-01-05T03:35:56.830Z,11.55
2023-01-05T03:36:56.855Z,11.58
2023-01-05T03:37:56.884Z,11.61
2023-01-05T03:38:56.898Z,11.62
2023-01-05T03:39:56.929Z,11.62
2023-01-05T03:40:56.944Z,11.60
2023-01-05T03:41:56.962Z,11.62
2023-01-05T03:42:56.987Z,11.61
2023-01-05T03:43:57.012Z,11.58
2023-01-05T03:44:57.041Z,11.55
2023-01-05T03:45:57.089Z,11.51
2023-01-05T03:46:57.106Z,11.57
2023-01-05T03:47:57.104Z,11.57
2023-01-05T03:48:57.125Z,11.55
2023-01-05T03:49:57.147Z,11.47
2023-01-05T03:50:57.179Z,11.51
2023-01-05T03:51:57.191Z,11.55
2023-01-05T03:52:57.211Z,11.60
2023-01-05T03:53:57.235Z,11.51
2023-01-05T03:54:57.257Z,11.57
2023-01-05T03:55:57.278Z,11.58
2023-01-05T03:56:57.304Z,11.52
2023-01-05T03:57:57.327Z,11.51
2023-01-05T03:58:57.368Z,11.52
2023-01-05T03:59:57.381Z,11.55
2023-01-05T04:00:57.391Z,11.55
2023-01-05T04:01:57.553Z,11.44
2023-01-05T04:02:57.581Z,11.54
2023-01-05T04:03:57.527Z,11.44
2023-01-05T04:04:57.476Z,11.57
2023-01-05T04:05:57.508Z,11.55
2023-01-05T04:06:57.526Z,11.49
2023-01-05T04:07:57.560Z,11.43
2023-01-05T04:08:57.569Z,11.47
2023-01-05T04:09:57.589Z,11.44
2023-01-05T04:10:57.614Z,11.43
2023-01-05T04:11:57.641Z,11.42
2023-01-05T04:12:57.660Z,11.54
2023-01-05T04:13:57.680Z,11.43
2023-01-05T04:14:57.703Z,11.44
2023-01-05T04:15:57.768Z,11.43
2023-01-05T04:16:57.753Z,11.46
2023-01-05T04:17:57.763Z,11.51
2023-01-05T04:18:57.798Z,11.49
2023-01-05T04:19:57.817Z,11.49
2023-01-05T04:20:57.861Z,11.43
2023-01-05T04:21:57.857Z,11.54
2023-01-05T04:22:57.880Z,11.44
2023-01-05T04:23:57.901Z,11.47
2023-01-05T04:24:57.925Z,11.39
2023-01-05T04:25:57.975Z,11.40
2023-01-05T04:26:57.971Z,11.49
2023-01-05T04:27:57.987Z,11.43
2023-01-05T04:28:58.015Z,11.43
2023-01-05T04:29:58.033Z,11.35
2023-01-05T04:30:58.098Z,11.42
2023-01-05T04:31:58.080Z,11.33
2023-01-05T04:32:58.101Z,11.42
2023-01-05T04:33:58.125Z,11.44
2023-01-05T04:34:58.145Z,11.39
2023-01-05T04:35:58.174Z,11.37
2023-01-05T04:36:58.192Z,11.46
2023-01-05T04:37:58.211Z,11.36
2023-01-05T04:38:58.236Z,11.42
2023-01-05T04:39:58.263Z,11.40
2023-01-05T04:40:58.277Z,11.39
2023-01-05T04:41:58.301Z,11.49
2023-01-05T04:42:58.334Z,11.39
2023-01-05T04:43:58.351Z,11.51
2023-01-05T04:44:58.368Z,11.49
2023-01-05T04:45:58.419Z,11.43
2023-01-05T04:46:58.491Z,11.42
2023-01-05T04:47:58.435Z,11.47
2023-01-05T04:48:58.460Z,11.49
2023-01-05T04:49:58.483Z,11.33
2023-01-05T04:50:58.503Z,11.44
2023-01-05T04:51:58.529Z,11.46
2023-01-05T04:52:58.551Z,11.47
2023-01-05T04:53:58.585Z,11.37
2023-01-05T04:54:58.611Z,11.49
2023-01-05T04:55:58.629Z,11.42
2023-01-05T04:56:58.636Z,11.42
2023-01-05T04:57:58.659Z,11.35
2023-01-05T04:58:58.685Z,11.37
2023-01-05T04:59:58.703Z,11.37
2023-01-05T05:00:58.722Z,11.42
2023-01-05T05:01:58.851Z,11.43
2023-01-05T05:02:58.970Z,11.43
2023-01-05T05:03:58.832Z,11.42
2023-01-05T05:04:58.814Z,11.40
2023-01-05T05:05:58.853Z,11.46
2023-01-05T05:06:58.862Z,11.35
2023-01-05T05:07:58.882Z,11.43
2023-01-05T05:08:58.903Z,11.44
2023-01-05T05:09:58.928Z,11.42
2023-01-05T05:10:58.945Z,11.39
2023-01-05T05:11:58.970Z,11.55
2023-01-05T05:12:59.012Z,11.39
2023-01-05T05:13:59.018Z,11.39
2023-01-05T05:14:59.039Z,11.47
2023-01-05T05:15:59.115Z,11.49
2023-01-05T05:16:59.127Z,11.54
2023-01-05T05:18:02.825Z,11.44
2023-01-05T05:18:59.130Z,11.51
2023-01-05T05:19:59.155Z,11.47
2023-01-05T05:20:59.172Z,11.47
2023-01-05T05:21:59.213Z,11.40
2023-01-05T05:22:59.222Z,11.42
2023-01-05T05:23:59.241Z,11.36
2023-01-05T05:24:59.258Z,11.36
2023-01-05T05:25:59.280Z,11.39
2023-01-05T05:26:59.308Z,11.35
2023-01-05T05:27:59.340Z,11.42
2023-01-05T05:28:59.347Z,11.42
2023-01-05T05:29:59.373Z,11.35
2023-01-05T05:30:59.446Z,11.44
2023-01-05T05:31:59.421Z,11.46
2023-01-05T05:32:59.436Z,11.42
2023-01-05T05:33:59.463Z,11.36
2023-01-05T05:34:59.481Z,11.39
2023-01-05T05:35:59.506Z,11.44
2023-01-05T05:36:59.525Z,11.42
2023-01-05T05:37:59.558Z,11.39
2023-01-05T05:38:59.581Z,11.37
2023-01-05T05:39:59.602Z,11.44
2023-01-05T05:40:59.629Z,11.46
2023-01-05T05:41:59.633Z,11.32
2023-01-05T05:42:59.663Z,11.43
2023-01-05T05:43:59.688Z,11.39
2023-01-05T05:44:59.712Z,11.42
2023-01-05T05:45:59.725Z,11.39
2023-01-05T05:46:59.776Z,11.39
2023-01-05T05:47:59.769Z,11.33
2023-01-05T05:48:59.793Z,11.46
2023-01-05T05:49:59.816Z,11.40
2023-01-05T05:50:59.838Z,11.37
2023-01-05T05:51:59.875Z,11.43
2023-01-05T05:52:59.899Z,11.37
2023-01-05T05:53:59.912Z,11.40
2023-01-05T05:54:59.930Z,11.42
2023-01-05T05:55:59.989Z,11.40
2023-01-05T05:56:59.968Z,11.47
2023-01-05T05:57:59.996Z,11.37
2023-01-05T05:59:01.790Z,11.37
2023-01-05T06:00:00.045Z,11.40
2023-01-05T06:01:00.093Z,11.44
2023-01-05T06:02:00.221Z,11.49
2023-01-05T06:03:00.289Z,11.37
2023-01-05T06:04:00.164Z,11.44
2023-01-05T06:05:00.151Z,11.40
2023-01-05T06:06:00.173Z,11.35
2023-01-05T06:07:00.199Z,11.27
2023-01-05T06:08:00.218Z,11.37
2023-01-05T06:09:00.241Z,11.27
2023-01-05T06:10:00.261Z,11.18
2023-01-05T06:11:00.281Z,11.15
2023-01-05T06:12:00.333Z,11.21
2023-01-05T06:13:00.323Z,11.15
2023-01-05T06:14:00.358Z,11.15
2023-01-05T06:15:00.368Z,11.15
2023-01-05T06:16:00.482Z,11.14
2023-01-05T06:17:00.416Z,11.10
2023-01-05T06:18:00.443Z,11.10
2023-01-05T06:19:00.462Z,11.19
2023-01-05T06:20:00.481Z,11.15
2023-01-05T06:21:01.958Z,11.15
2023-01-05T06:22:00.528Z,11.18
2023-01-05T06:23:00.548Z,11.18
2023-01-05T06:24:00.573Z,11.21
2023-01-05T06:25:00.613Z,11.22
2023-01-05T06:26:00.623Z,11.22
2023-01-05T06:27:00.635Z,11.27
2023-01-05T06:28:00.669Z,11.33
2023-01-05T06:29:00.681Z,11.24
2023-01-05T06:30:00.706Z,11.33
2023-01-05T06:31:00.724Z,11.28
2023-01-05T06:32:00.760Z,11.24
2023-01-05T06:33:00.768Z,11.33
2023-01-05T06:34:00.789Z,11.33
2023-01-05T06:35:00.819Z,11.25
2023-01-05T06:36:00.847Z,11.24
2023-01-05T06:37:02.530Z,11.17
2023-01-05T06:38:00.886Z,11.10
2023-01-05T06:39:00.906Z,11.14
2023-01-05T06:40:00.922Z,11.11
2023-01-05T06:41:00.945Z,11.24
2023-01-05T06:42:00.976Z,11.17
2023-01-05T06:43:00.991Z,11.15
2023-01-05T06:44:01.020Z,11.24
2023-01-05T06:45:01.042Z,11.11
2023-01-05T06:46:01.077Z,11.21
2023-01-05T06:47:01.084Z,11.24
2023-01-05T06:48:01.157Z,11.29
2023-01-05T06:49:01.128Z,11.19
2023-01-05T06:50:01.149Z,11.21
2023-01-05T06:51:01.174Z,11.24
2023-01-05T06:52:01.196Z,11.22
2023-01-05T06:53:01.218Z,11.25
2023-01-05T06:54:01.244Z,11.27
2023-01-05T06:55:01.269Z,11.25
2023-01-05T06:56:01.281Z,11.22
2023-01-05T06:57:01.305Z,11.21
2023-01-05T06:58:01.585Z,11.27
2023-01-05T06:59:01.348Z,11.33
2023-01-05T07:00:01.371Z,11.22
2023-01-05T07:01:01.421Z,11.17
2023-01-05T07:02:01.489Z,11.17
2023-01-05T07:03:01.433Z,11.21
2023-01-05T07:04:01.606Z,11.17
2023-01-05T07:05:01.481Z,11.09
2023-01-05T07:06:01.504Z,11.18
2023-01-05T07:07:01.525Z,11.17
2023-01-05T07:08:01.545Z,11.17
2023-01-05T07:09:01.565Z,11.24
2023-01-05T07:10:01.604Z,11.14
2023-01-05T07:11:01.622Z,11.21
2023-01-05T07:12:01.650Z,11.14
2023-01-05T07:13:01.659Z,11.17
2023-01-05T07:14:01.682Z,11.19
2023-01-05T07:15:01.703Z,11.10
2023-01-05T07:16:01.785Z,11.04
2023-01-05T07:17:01.745Z,11.04
2023-01-05T07:18:01.777Z,11.06
2023-01-05T07:19:01.791Z,11.10
2023-01-05T07:20:01.808Z,11.07
2023-01-05T07:21:01.836Z,11.02
2023-01-05T07:22:01.856Z,11.04
2023-01-05T07:23:01.883Z,11.06
2023-01-05T07:24:01.904Z,11.06
2023-01-05T07:25:01.922Z,11.11
2023-01-05T07:26:01.958Z,11.19
2023-01-05T07:27:09.261Z,11.18
2023-01-05T07:28:01.988Z,11.19
2023-01-05T07:29:02.016Z,11.11
2023-01-05T07:30:02.036Z,11.10
2023-01-05T07:31:02.057Z,11.18
2023-01-05T07:32:02.144Z,11.22
2023-01-05T07:33:02.100Z,11.15
2023-01-05T07:34:02.125Z,11.24
2023-01-05T07:35:02.142Z,11.17
2023-01-05T07:36:02.199Z,11.24
2023-01-05T07:37:02.190Z,11.22
2023-01-05T07:38:02.249Z,11.22
2023-01-05T07:39:02.244Z,11.17
2023-01-05T07:40:02.255Z,11.21
2023-01-05T07:41:02.352Z,11.21
2023-01-05T07:42:02.303Z,11.17
2023-01-05T07:43:02.338Z,11.17
2023-01-05T07:44:02.345Z,11.10
2023-01-05T07:45:02.370Z,11.17
2023-01-05T07:46:02.469Z,11.17
2023-01-05T07:47:02.412Z,11.19
2023-01-05T07:48:02.527Z,11.24
2023-01-05T07:49:02.459Z,11.24
2023-01-05T07:50:02.474Z,11.18
2023-01-05T07:51:02.566Z,11.22
2023-01-05T07:52:02.536Z,11.29
2023-01-05T07:53:02.543Z,11.24
2023-01-05T07:54:02.566Z,11.29
2023-01-05T07:55:02.595Z,11.24
2023-01-05T07:56:02.614Z,11.27
2023-01-05T07:57:02.653Z,11.35
2023-01-05T07:58:02.659Z,11.36
2023-01-05T07:59:02.676Z,11.39
2023-01-05T08:00:02.721Z,11.33
2023-01-05T08:01:02.836Z,11.24
2023-01-05T08:02:03.105Z,11.28
2023-01-05T08:03:02.771Z,11.22
2023-01-05T08:04:02.880Z,11.19
2023-01-05T08:05:02.817Z,11.22
2023-01-05T08:06:02.835Z,11.24
2023-01-05T08:07:02.856Z,11.27
2023-01-05T08:08:02.876Z,11.27
2023-01-05T08:09:02.904Z,11.24
2023-01-05T08:10:02.919Z,11.32
2023-01-05T08:11:02.942Z,11.27
2023-01-05T08:12:02.969Z,11.33
2023-01-05T08:13:02.993Z,11.32
2023-01-05T08:14:03.164Z,11.27
2023-01-05T08:15:03.051Z,11.28
2023-01-05T08:16:03.213Z,11.25
2023-01-05T08:17:03.122Z,11.35
2023-01-05T08:18:03.100Z,11.33
2023-01-05T08:19:07.790Z,11.28
2023-01-05T08:20:03.155Z,11.25
2023-01-05T08:21:03.177Z,11.36
2023-01-05T08:22:03.185Z,11.42
2023-01-05T08:23:03.211Z,11.33
2023-01-05T08:24:03.235Z,11.43
2023-01-05T08:25:03.257Z,11.35
2023-01-05T08:26:03.282Z,11.40
2023-01-05T08:27:03.337Z,11.46
2023-01-05T08:28:03.324Z,11.47
2023-01-05T08:29:03.367Z,11.39
2023-01-05T08:30:03.369Z,11.47
2023-01-05T08:31:03.404Z,11.44
2023-01-05T08:32:03.432Z,11.47
2023-01-05T08:33:03.445Z,11.43
2023-01-05T08:34:03.459Z,11.54
2023-01-05T08:35:03.474Z,11.54
2023-01-05T08:36:03.510Z,11.37
2023-01-05T08:37:03.527Z,11.44
2023-01-05T08:38:03.553Z,11.43
2023-01-05T08:39:03.577Z,11.43
2023-01-05T08:40:03.591Z,11.43
2023-01-05T08:41:03.616Z,11.44
2023-01-05T08:42:03.633Z,11.43
2023-01-05T08:43:03.655Z,11.49
2023-01-05T08:44:03.688Z,11.46
2023-01-05T08:45:03.741Z,11.52
2023-01-05T08:46:03.736Z,11.54
2023-01-05T08:47:03.756Z,11.51
2023-01-05T08:48:03.767Z,11.47
2023-01-05T08:49:03.815Z,11.44
2023-01-05T08:50:03.825Z,11.46
2023-01-05T08:51:03.851Z,11.55
2023-01-05T08:52:03.877Z,11.44
2023-01-05T08:53:03.879Z,11.51
2023-01-05T08:54:03.912Z,11.57
2023-01-05T08:55:03.925Z,11.51
2023-01-05T08:56:03.950Z,11.51
2023-01-05T08:57:03.970Z,11.51
2023-01-05T08:58:04.000Z,11.58
2023-01-05T08:59:04.028Z,11.52
2023-01-05T09:00:04.054Z,11.55
2023-01-05T09:01:04.204Z,11.54
2023-01-05T09:02:04.321Z,11.52
2023-01-05T09:03:04.245Z,11.57
2023-01-05T09:04:04.140Z,11.58
2023-01-05T09:05:04.148Z,11.61
2023-01-05T09:06:04.213Z,11.57
2023-01-05T09:07:04.196Z,11.64
2023-01-05T09:08:04.229Z,11.61
2023-01-05T09:09:04.265Z,11.54
2023-01-05T09:10:04.287Z,11.57
2023-01-05T09:11:04.283Z,11.69
2023-01-05T09:12:04.313Z,11.64
2023-01-05T09:13:04.330Z,11.64
2023-01-05T09:14:04.351Z,11.67
2023-01-05T09:15:04.377Z,11.65
2023-01-05T09:16:04.399Z,11.62
2023-01-05T09:17:07.397Z,11.64
2023-01-05T09:18:04.513Z,11.67
2023-01-05T09:19:04.501Z,11.69
2023-01-05T09:20:04.527Z,11.65
2023-01-05T09:21:04.523Z,11.62
2023-01-05T09:22:04.535Z,11.73
2023-01-05T09:23:04.553Z,11.69
2023-01-05T09:24:04.584Z,11.65
2023-01-05T09:25:04.599Z,11.70
2023-01-05T09:26:04.643Z,11.73
2023-01-05T09:27:04.654Z,11.76
2023-01-05T09:28:04.701Z,11.70
2023-01-05T09:29:04.701Z,11.75
2023-01-05T09:30:04.720Z,11.70
2023-01-05T09:31:04.786Z,11.67
2023-01-05T09:32:04.774Z,11.67
2023-01-05T09:33:04.785Z,11.70
2023-01-05T09:34:04.807Z,11.67
2023-01-05T09:35:04.843Z,11.72
2023-01-05T09:36:04.862Z,11.73
2023-01-05T09:37:04.876Z,11.72
2023-01-05T09:38:04.904Z,11.73
2023-01-05T09:39:04.921Z,11.65
2023-01-05T09:40:05.055Z,11.75
2023-01-05T09:41:04.961Z,11.76
2023-01-05T09:42:04.987Z,11.79
2023-01-05T09:43:05.012Z,11.70
2023-01-05T09:44:05.028Z,11.72
2023-01-05T09:45:05.141Z,11.82
2023-01-05T09:46:05.094Z,11.76
2023-01-05T09:47:05.130Z,11.82
2023-01-05T09:48:05.124Z,11.83
2023-01-05T09:49:05.152Z,11.90
2023-01-05T09:50:05.170Z,11.85
2023-01-05T09:51:05.189Z,11.91
2023-01-05T09:52:05.221Z,11.90
2023-01-05T09:53:05.233Z,11.85
2023-01-05T09:54:05.258Z,11.85
2023-01-05T09:55:05.282Z,11.85
2023-01-05T09:56:05.405Z,11.86
2023-01-05T09:57:09.983Z,11.85
2023-01-05T09:58:05.357Z,11.82
2023-01-05T09:59:05.377Z,11.88
2023-01-05T10:00:05.407Z,11.86
2023-01-05T10:01:05.450Z,11.80
2023-01-05T10:02:05.442Z,11.75
2023-01-05T10:03:05.496Z,11.73
2023-01-05T10:04:05.640Z,11.70
2023-01-05T10:05:05.793Z,11.70
2023-01-05T10:06:05.536Z,11.86
2023-01-05T10:07:05.559Z,11.86
2023-01-05T10:08:05.580Z,11.85
2023-01-05T10:09:05.599Z,11.86
2023-01-05T10:10:05.628Z,11.86
2023-01-05T10:11:05.656Z,11.86
2023-01-05T10:12:05.774Z,11.86
2023-01-05T10:13:05.727Z,11.82
2023-01-05T10:14:05.714Z,11.88
2023-01-05T10:15:05.744Z,11.91
2023-01-05T10:17:43.257Z,11.98
2023-01-05T10:18:37.430Z,12.01
2023-01-05T10:19:37.460Z,12.07
2023-01-05T10:20:37.484Z,12.10
2023-01-05T10:21:37.500Z,11.98
2023-01-05T10:22:39.015Z,11.98
2023-01-05T10:23:37.543Z,11.94
2023-01-05T10:24:37.561Z,11.95
2023-01-05T10:25:37.594Z,11.94
2023-01-05T10:27:13.943Z,11.94
2023-01-05T10:27:37.745Z,11.86
2023-01-05T10:28:37.666Z,11.90
2023-01-05T10:29:37.683Z,11.79
2023-01-05T10:30:37.716Z,11.94
2023-01-05T10:31:37.721Z,11.98
2023-01-05T10:32:49.368Z,12.01
2023-01-05T10:33:41.495Z,11.95
2023-01-05T10:34:37.797Z,11.99
2023-01-05T10:36:03.386Z,11.99
2023-01-05T10:37:37.863Z,11.86
2023-01-05T10:38:37.885Z,11.86
2023-01-05T10:39:37.906Z,11.88
2023-01-05T10:40:37.930Z,11.76
2023-01-05T10:41:37.957Z,11.88
2023-01-05T10:42:37.983Z,11.70
2023-01-05T10:43:38.092Z,11.80
2023-01-05T10:44:38.037Z,11.76
2023-01-05T10:45:57.208Z,11.76
2023-01-05T10:46:41.909Z,11.73
2023-01-05T10:47:38.179Z,11.75
2023-01-05T10:48:38.116Z,11.76
2023-01-05T10:49:38.134Z,11.78
2023-01-05T10:50:38.173Z,11.72
2023-01-05T10:51:38.186Z,11.72
2023-01-05T10:52:38.214Z,11.69
2023-01-05T10:53:38.249Z,11.67
2023-01-05T10:54:38.262Z,11.64
2023-01-05T10:55:38.271Z,11.58
2023-01-05T10:56:38.292Z,11.70
2023-01-05T10:57:38.343Z,11.76
2023-01-05T10:58:38.340Z,11.80
2023-01-05T10:59:38.529Z,11.78
2023-01-05T11:00:38.398Z,11.82
2023-01-05T11:01:38.561Z,11.75
2023-01-05T11:02:38.568Z,11.80
2023-01-05T11:04:14.352Z,11.78
2023-01-05T11:04:38.510Z,11.72
2023-01-05T11:05:38.503Z,11.78
2023-01-05T11:06:38.530Z,11.73
2023-01-05T11:07:38.544Z,11.73
2023-01-05T11:08:38.568Z,11.78
2023-01-05T11:09:38.589Z,11.70
2023-01-05T11:10:38.646Z,11.76
2023-01-05T11:11:38.633Z,11.65
2023-01-05T11:12:38.662Z,11.76
2023-01-05T11:13:38.682Z,11.69
2023-01-05T11:14:38.700Z,11.65
2023-01-05T11:15:38.866Z,11.75
2023-01-05T11:16:38.747Z,11.58
2023-01-05T11:17:38.773Z,11.67
2023-01-05T11:18:38.793Z,11.58
2023-01-05T11:19:38.821Z,11.67
2023-01-05T11:20:38.840Z,11.69
2023-01-05T11:21:38.869Z,11.62
2023-01-05T11:22:38.889Z,11.65
2023-01-05T11:23:38.906Z,11.72
2023-01-05T11:24:38.942Z,11.73
2023-01-05T11:25:38.951Z,11.72
2023-01-05T11:26:38.974Z,11.78
2023-01-05T11:27:38.995Z,11.75
2023-01-05T11:28:39.019Z,11.78
2023-01-05T11:29:39.043Z,11.88
2023-01-05T11:30:39.095Z,11.88
2023-01-05T11:31:39.204Z,11.91
2023-01-05T11:32:39.110Z,11.86
2023-01-05T11:33:39.145Z,11.86
2023-01-05T11:34:39.167Z,11.86
2023-01-05T11:35:39.185Z,11.94
2023-01-05T11:36:39.199Z,11.99
2023-01-05T11:37:39.222Z,11.91
2023-01-05T11:38:39.249Z,11.90
2023-01-05T11:39:39.271Z,11.91
2023-01-05T11:40:39.293Z,12.01
2023-01-05T11:41:39.319Z,12.02
2023-01-05T11:42:39.340Z,12.04
2023-01-05T11:43:39.363Z,11.98
2023-01-05T11:44:39.386Z,12.04
2023-01-05T11:45:39.407Z,12.09
2023-01-05T11:46:39.447Z,11.95
2023-01-05T11:47:43.995Z,11.99
2023-01-05T11:48:39.475Z,11.96
2023-01-05T11:49:39.508Z,11.99
2023-01-05T11:50:39.525Z,11.99
2023-01-05T11:51:39.546Z,11.98
2023-01-05T11:52:39.588Z,11.98
2023-01-05T11:53:39.617Z,11.99
2023-01-05T11:54:39.612Z,11.86
2023-01-05T11:55:39.638Z,11.83
2023-01-05T11:56:39.668Z,11.96
2023-01-05T11:57:39.680Z,11.86
2023-01-05T11:58:39.703Z,11.94
2023-01-05T11:59:39.731Z,11.86
2023-01-05T12:00:39.824Z,11.90
2023-01-05T12:01:39.863Z,11.78
2023-01-05T12:02:39.829Z,11.79
2023-01-05T12:03:39.943Z,11.85
2023-01-05T12:04:39.841Z,11.86
2023-01-05T12:05:39.871Z,11.88
2023-01-05T12:06:39.887Z,11.98
2023-01-05T12:07:39.908Z,11.98
2023-01-05T12:08:39.931Z,11.99
2023-01-05T12:09:40.007Z,12.02
2023-01-05T12:10:39.977Z,12.07
2023-01-05T12:11:39.999Z,12.13
2023-01-05T12:12:40.024Z,12.20
2023-01-05T12:13:40.042Z,12.16
2023-01-05T12:14:40.069Z,12.24
2023-01-05T12:15:40.329Z,12.29
2023-01-05T12:16:40.146Z,12.28
2023-01-05T12:17:40.138Z,12.13
2023-01-05T12:18:40.158Z,12.31
2023-01-05T12:19:40.282Z,12.27
2023-01-05T12:20:40.212Z,12.29
2023-01-05T12:21:40.230Z,12.34
2023-01-05T12:22:40.256Z,12.31
2023-01-05T12:23:40.280Z,12.32
2023-01-05T12:24:40.327Z,12.31
2023-01-05T12:25:40.324Z,12.10
2023-01-05T12:26:40.352Z,12.24
2023-01-05T12:27:40.370Z,12.27
2023-01-05T12:28:41.801Z,12.24
2023-01-05T12:34:40.532Z,12.21
2023-01-05T12:35:40.649Z,12.27
2023-01-05T12:36:40.579Z,12.21
2023-01-05T12:37:40.622Z,12.17
2023-01-05T12:38:40.624Z,12.10
2023-01-05T12:39:40.650Z,12.28
2023-01-05T12:40:40.680Z,12.23
2023-01-05T12:41:40.694Z,12.27
2023-01-05T12:42:40.719Z,12.23
2023-01-05T12:43:40.743Z,12.24
2023-01-05T12:44:40.769Z,12.23
2023-01-05T12:45:40.791Z,12.16
2023-01-05T12:46:40.933Z,12.14
2023-01-05T12:47:40.836Z,12.28
2023-01-05T12:48:40.857Z,12.28
2023-01-05T12:49:40.880Z,12.29
2023-01-05T12:50:40.906Z,12.29
2023-01-05T12:51:41.013Z,12.19
2023-01-05T12:52:40.946Z,12.27
2023-01-05T12:53:40.973Z,12.27
2023-01-05T12:54:41.005Z,12.32
2023-01-05T12:55:41.025Z,12.31
2023-01-05T12:56:41.043Z,12.29
2023-01-05T12:57:41.066Z,12.31
2023-01-05T12:58:41.096Z,12.41
2023-01-05T12:59:41.117Z,12.35
2023-01-05T13:00:41.156Z,12.37
2023-01-05T13:01:41.300Z,12.45
2023-01-05T13:02:41.278Z,12.37
2023-01-05T13:03:41.202Z,12.39
2023-01-05T13:04:46.739Z,12.42
2023-01-05T13:05:46.006Z,12.37
2023-01-05T13:06:41.286Z,12.42
2023-01-05T13:07:41.404Z,12.45
2023-01-05T13:08:41.325Z,12.34
2023-01-05T13:09:41.343Z,12.31
2023-01-05T13:10:41.364Z,12.34
2023-01-05T13:11:41.395Z,12.28
2023-01-05T13:12:41.427Z,12.32
2023-01-05T13:13:41.434Z,12.34